createdAt,value
2023-01-25T00:01:22.275Z,15.48
2023-01-25T00:03:51.251Z,12.95
2023-01-25T00:06:19.900Z,13.93
2023-01-25T00:08:52.952Z,12.10
2023-01-25T00:11:22.291Z,13.73
2023-01-25T00:13:50.987Z,12.15
2023-01-25T00:16:19.929Z,12.55
2023-01-25T00:18:49.702Z,10.18
2023-01-25T00:21:21.467Z,11.40
2023-01-25T00:23:52.305Z,10.43
2023-01-25T00:26:22.048Z,12.25
2023-01-25T00:28:51.851Z,11.68
2023-01-25T00:31:33.580Z,14.20
2023-01-25T00:34:08.483Z,11.23
2023-01-25T00:36:43.421Z,10.30
2023-01-25T00:39:15.185Z,11.18
2023-01-25T00:41:45.755Z,11.40
2023-01-25T00:44:14.301Z,13.00
2023-01-25T00:46:45.381Z,12.57
2023-01-25T00:49:21.934Z,12.38
2023-01-25T00:51:50.764Z,12.48
2023-01-25T00:54:21.596Z,10.73
2023-01-25T00:56:52.795Z,11.35
2023-01-25T00:59:21.671Z,14.35
2023-01-25T01:01:50.617Z,12.77
2023-01-25T01:04:19.712Z,11.30
2023-01-25T01:06:48.593Z,16.00
2023-01-25T01:09:19.682Z,12.75
2023-01-25T01:11:50.069Z,14.27
2023-01-25T01:14:19.176Z,13.27
2023-01-25T01:16:48.063Z,14.70
2023-01-25T01:19:17.432Z,15.27
2023-01-25T01:21:46.150Z,15.90
2023-01-25T01:24:14.858Z,15.82
2023-01-25T01:26:43.566Z,19.13
2023-01-25T01:29:15.709Z,20.85
2023-01-25T01:31:44.560Z,20.63
2023-01-25T01:34:16.020Z,20.23
2023-01-25T01:36:44.516Z,20.13
2023-01-25T01:39:13.183Z,21.33
2023-01-25T01:41:42.223Z,22.00
2023-01-25T01:44:18.786Z,24.17
2023-01-25T01:46:54.433Z,23.38
2023-01-25T01:49:28.305Z,25.02
2023-01-25T01:52:02.891Z,23.65
2023-01-25T01:54:38.163Z,26.85
2023-01-25T01:57:10.600Z,25.95
2023-01-25T01:59:45.241Z,24.55
2023-01-25T02:02:15.439Z,27.02
2023-01-25T02:04:47.809Z,26.10
2023-01-25T02:07:22.705Z,22.02
2023-01-25T02:09:52.575Z,25.35
2023-01-25T02:12:24.491Z,24.88
2023-01-25T02:14:55.972Z,22.25
2023-01-25T02:17:29.193Z,22.00
2023-01-25T02:20:05.552Z,24.25
2023-01-25T02:22:43.005Z,23.15
2023-01-25T02:25:15.612Z,22.20
2023-01-25T02:27:49.388Z,21.17
2023-01-25T02:30:18.104Z,21.15
2023-01-25T02:32:46.534Z,21.95
2023-01-25T02:35:21.291Z,20.55
2023-01-25T02:37:50.971Z,18.98
2023-01-25T02:40:21.203Z,19.92
2023-01-25T02:42:49.894Z,17.08
2023-01-25T02:45:23.878Z,17.80
2023-01-25T02:47:52.779Z,18.00
2023-01-25T02:50:21.550Z,18.88
2023-01-25T02:52:50.292Z,18.50
2023-01-25T02:55:20.682Z,17.90
2023-01-25T02:57:49.503Z,14.30
2023-01-25T03:00:18.892Z,17.85
2023-01-25T03:02:47.821Z,19.20
2023-01-25T03:05:17.099Z,16.70
2023-01-25T03:07:46.227Z,16.00
2023-01-25T03:10:14.825Z,17.83
2023-01-25T03:12:45.872Z,18.08
2023-01-25T03:15:15.083Z,18.27
2023-01-25T03:17:43.960Z,17.42
2023-01-25T03:20:13.860Z,17.58
2023-01-25T03:22:42.712Z,18.20
2023-01-25T03:25:11.921Z,16.23
2023-01-25T03:27:40.770Z,18.55
2023-01-25T03:30:13.555Z,16.60
2023-01-25T03:32:46.452Z,16.20
2023-01-25T03:35:14.999Z,16.55
2023-01-25T03:37:43.732Z,16.15
2023-01-25T03:40:13.516Z,16.40
2023-01-25T03:42:43.242Z,16.10
2023-01-25T03:45:14.714Z,15.90
2023-01-25T03:47:43.219Z,16.33
2023-01-25T03:50:13.390Z,18.30
2023-01-25T03:52:45.660Z,15.60
2023-01-25T03:55:14.247Z,17.00
2023-01-25T03:57:44.164Z,15.93
2023-01-25T04:00:15.362Z,15.32
2023-01-25T04:02:43.986Z,17.77
2023-01-25T04:05:12.681Z,16.23
2023-01-25T04:07:42.392Z,19.00
2023-01-25T04:10:12.406Z,18.50
2023-01-25T04:12:40.932Z,19.90
2023-01-25T04:15:11.375Z,17.33
2023-01-25T04:17:41.604Z,16.30
2023-01-25T04:20:12.233Z,22.15
2023-01-25T04:22:41.295Z,18.63
2023-01-25T04:25:11.455Z,19.33
2023-01-25T04:27:40.503Z,19.08
2023-01-25T04:30:10.594Z,20.83
2023-01-25T04:32:41.171Z,23.15
2023-01-25T04:35:11.040Z,17.83
2023-01-25T04:37:40.042Z,19.60
2023-01-25T04:40:11.170Z,20.02
2023-01-25T04:42:40.827Z,16.30
2023-01-25T04:45:10.412Z,14.98
2023-01-25T04:47:40.919Z,17.35
2023-01-25T04:50:10.681Z,19.05
2023-01-25T04:52:39.226Z,16.23
2023-01-25T04:55:08.596Z,16.92
2023-01-25T04:57:37.570Z,17.33
2023-01-25T05:00:07.224Z,20.15
2023-01-25T05:02:37.275Z,16.67
2023-01-25T05:05:09.013Z,15.60
2023-01-25T05:07:38.689Z,16.15
2023-01-25T05:10:09.148Z,19.27
2023-01-25T05:12:37.860Z,19.15
2023-01-25T05:15:08.016Z,16.48
2023-01-25T05:17:37.387Z,19.48
2023-01-25T05:20:08.249Z,18.83
2023-01-25T05:22:36.581Z,15.65
2023-01-25T05:25:07.673Z,18.63
2023-01-25T05:27:35.531Z,20.48
2023-01-25T05:30:04.420Z,22.02
2023-01-25T05:32:33.077Z,20.67
2023-01-25T05:35:01.795Z,20.05
2023-01-25T05:37:31.934Z,21.35
2023-01-25T05:40:01.482Z,21.80
2023-01-25T05:42:30.158Z,19.10
2023-01-25T05:44:58.757Z,24.42
2023-01-25T05:47:27.382Z,17.08
2023-01-25T05:49:56.319Z,19.85
2023-01-25T05:52:25.013Z,20.25
2023-01-25T05:54:55.363Z,19.75
2023-01-25T05:57:23.705Z,20.58
2023-01-25T05:59:52.407Z,17.95
2023-01-25T06:02:21.109Z,19.73
2023-01-25T06:04:50.173Z,18.17
2023-01-25T06:07:18.747Z,14.82
2023-01-25T06:09:47.432Z,15.82
2023-01-25T06:12:17.843Z,14.43
2023-01-25T06:14:48.562Z,13.73
2023-01-25T06:17:17.535Z,14.93
2023-01-25T06:19:46.598Z,13.18
2023-01-25T06:22:15.364Z,12.85
2023-01-25T06:24:44.133Z,9.50
2023-01-25T06:27:12.936Z,12.07
2023-01-25T06:29:43.864Z,10.60
2023-01-25T06:32:12.765Z,11.30
2023-01-25T06:34:41.527Z,10.27
2023-01-25T06:37:10.189Z,13.55
2023-01-25T06:39:38.858Z,12.02
2023-01-25T06:42:07.254Z,11.23
2023-01-25T06:44:36.381Z,10.70
2023-01-25T06:47:07.025Z,10.88
2023-01-25T06:49:36.687Z,12.70
2023-01-25T06:52:05.994Z,10.43
2023-01-25T06:54:36.017Z,13.07
2023-01-25T06:57:05.118Z,12.82
2023-01-25T06:59:33.839Z,10.85
2023-01-25T07:02:02.936Z,11.82
2023-01-25T07:04:34.317Z,10.60
2023-01-25T07:07:03.175Z,12.10
2023-01-25T07:09:31.848Z,11.65
2023-01-25T07:12:00.486Z,13.60
2023-01-25T07:14:29.276Z,15.00
2023-01-25T07:16:58.518Z,14.10
2023-01-25T07:19:27.355Z,12.82
2023-01-25T07:21:57.992Z,12.15
2023-01-25T07:24:29.409Z,11.40
2023-01-25T07:26:59.211Z,13.68
2023-01-25T07:29:27.806Z,10.55
2023-01-25T07:31:58.378Z,10.05
2023-01-25T07:34:29.081Z,10.20
2023-01-25T07:36:59.409Z,10.45
2023-01-25T07:39:29.195Z,10.75
2023-01-25T07:41:58.523Z,10.93
2023-01-25T07:44:27.310Z,8.70
2023-01-25T07:46:57.142Z,9.48
2023-01-25T07:49:29.391Z,11.23
2023-01-25T07:52:01.839Z,9.57
2023-01-25T07:54:31.008Z,9.43
2023-01-25T07:56:59.684Z,7.80
2023-01-25T07:59:29.313Z,8.90
2023-01-25T08:01:58.896Z,8.60
2023-01-25T08:04:27.806Z,10.40
2023-01-25T08:07:00.275Z,9.90
2023-01-25T08:09:39.190Z,8.07
2023-01-25T08:12:09.397Z,10.52
2023-01-25T08:14:39.097Z,8.70
2023-01-25T08:17:10.269Z,7.45
2023-01-25T08:19:38.910Z,8.10
2023-01-25T08:22:10.542Z,8.70
2023-01-25T08:24:40.610Z,8.60
2023-01-25T08:27:10.979Z,7.90
2023-01-25T08:29:40.828Z,9.77
2023-01-25T08:32:10.051Z,8.75
2023-01-25T08:34:40.650Z,9.90
2023-01-25T08:37:11.286Z,8.65
2023-01-25T08:39:39.849Z,9.93
2023-01-25T08:42:08.950Z,10.40
2023-01-25T08:44:38.682Z,9.50
2023-01-25T08:47:11.282Z,8.45
2023-01-25T08:49:41.272Z,11.65
2023-01-25T08:52:15.451Z,10.60
2023-01-25T08:54:44.651Z,9.90
2023-01-25T08:57:13.380Z,9.77
2023-01-25T08:59:41.914Z,11.57
2023-01-25T09:02:13.289Z,10.95
2023-01-25T09:04:41.940Z,9.65
2023-01-25T09:07:12.219Z,10.15
2023-01-25T09:09:40.615Z,8.32
2023-01-25T09:12:11.126Z,8.20
2023-01-25T09:14:40.835Z,8.65
2023-01-25T09:17:11.243Z,11.18
2023-01-25T09:19:42.868Z,9.35
2023-01-25T09:22:13.310Z,9.88
2023-01-25T09:24:42.138Z,9.73
2023-01-25T09:27:11.161Z,10.68
2023-01-25T09:29:43.745Z,9.88
2023-01-25T09:32:15.363Z,8.73
2023-01-25T09:34:44.624Z,10.88
2023-01-25T09:37:15.541Z,9.02
2023-01-25T09:39:44.906Z,12.85
2023-01-25T09:42:39.368Z,10.15
2023-01-25T09:45:17.211Z,10.50
2023-01-25T09:47:52.856Z,11.18
2023-01-25T09:50:35.096Z,11.35
2023-01-25T09:53:24.591Z,11.35
2023-01-25T09:55:59.679Z,15.15
2023-01-25T09:58:34.495Z,11.02
2023-01-25T10:01:38.636Z,14.75
2023-01-25T10:04:16.491Z,13.68
2023-01-25T10:06:59.737Z,15.55
2023-01-25T10:09:44.236Z,13.82
2023-01-25T10:12:21.063Z,13.27
2023-01-25T10:14:51.007Z,16.75
2023-01-25T10:17:31.679Z,13.82
2023-01-25T10:20:17.767Z,19.23
2023-01-25T10:22:52.926Z,19.05
2023-01-25T10:25:31.067Z,17.13
2023-01-25T10:28:16.306Z,20.27
2023-01-25T10:30:54.425Z,15.35
2023-01-25T10:33:23.475Z,15.75
2023-01-25T10:35:52.165Z,20.77
2023-01-25T10:38:27.044Z,17.65
2023-01-25T10:41:02.559Z,19.92
2023-01-25T10:43:31.732Z,18.63
2023-01-25T10:46:00.773Z,20.48
2023-01-25T10:48:35.746Z,21.92
2023-01-25T10:51:04.749Z,21.70
2023-01-25T10:53:36.115Z,21.70
2023-01-25T10:56:26.085Z,19.92
2023-01-25T10:59:09.775Z,20.48
2023-01-25T11:01:38.637Z,17.15
2023-01-25T11:04:32.512Z,20.42
2023-01-25T11:07:03.370Z,19.15
2023-01-25T11:09:38.272Z,22.73
2023-01-25T11:12:20.107Z,18.65
2023-01-25T11:14:51.323Z,21.33
2023-01-25T11:17:27.895Z,20.73
2023-01-25T11:20:20.780Z,18.65
2023-01-25T11:22:55.156Z,19.45
2023-01-25T11:25:29.333Z,22.45
2023-01-25T11:28:23.562Z,20.70
2023-01-25T11:30:54.887Z,18.52
2023-01-25T11:33:28.371Z,20.50
2023-01-25T11:36:27.875Z,25.45
2023-01-25T11:39:28.299Z,12.70
2023-01-25T11:42:11.299Z,6.50
2023-01-25T11:45:05.489Z,6.05
2023-01-25T11:47:50.143Z,5.88
2023-01-25T11:50:28.737Z,10.77
2023-01-25T11:53:17.345Z,11.25
2023-01-25T11:55:56.277Z,13.15
2023-01-25T11:58:42.976Z,12.27
2023-01-25T12:01:23.571Z,9.18
2023-01-25T12:04:19.606Z,13.27
2023-01-25T12:07:00.246Z,10.32
2023-01-25T12:09:45.716Z,15.73
2023-01-25T12:12:23.417Z,11.07
2023-01-25T12:15:08.841Z,20.83
2023-01-25T12:17:51.549Z,16.42
2023-01-25T12:20:42.944Z,16.13
2023-01-25T12:23:26.909Z,11.82
2023-01-25T12:26:14.843Z,19.45
2023-01-25T12:28:46.519Z,14.82
2023-01-25T12:31:22.144Z,17.20
2023-01-25T12:33:59.104Z,14.43
2023-01-25T12:36:33.623Z,16.50
2023-01-25T12:39:06.905Z,18.77
2023-01-25T12:41:42.427Z,17.67
2023-01-25T12:44:20.381Z,26.90
2023-01-25T12:46:59.611Z,24.25
2023-01-25T12:49:38.575Z,13.95
2023-01-25T12:52:13.800Z,14.32
2023-01-25T12:54:44.498Z,14.43
2023-01-25T12:57:23.625Z,15.80
2023-01-25T13:00:02.695Z,17.23
2023-01-25T13:02:51.477Z,14.80
2023-01-25T13:05:31.393Z,18.17
2023-01-25T13:08:23.078Z,15.48
2023-01-25T13:11:03.713Z,17.13
2023-01-25T13:13:33.790Z,13.77
2023-01-25T13:16:33.349Z,17.77
2023-01-25T13:19:01.964Z,30.30
2023-01-25T13:21:47.703Z,17.25
2023-01-25T13:24:20.312Z,20.13
2023-01-25T13:27:01.835Z,18.45
2023-01-25T13:29:56.649Z,17.38
2023-01-25T13:33:07.591Z,19.67
2023-01-25T13:35:45.344Z,16.08
2023-01-25T13:38:39.427Z,13.52
2023-01-25T13:41:17.544Z,14.93
2023-01-25T13:43:51.386Z,16.15
2023-01-25T13:46:25.557Z,18.58
2023-01-25T13:49:11.647Z,14.88
2023-01-25T13:51:42.469Z,19.20
2023-01-25T13:54:19.370Z,20.95
2023-01-25T13:56:48.408Z,15.32
2023-01-25T13:59:28.292Z,15.57
2023-01-25T14:01:57.591Z,15.20
2023-01-25T14:04:26.618Z,12.25
2023-01-25T14:06:59.739Z,11.35
2023-01-25T14:09:31.236Z,11.10
2023-01-25T14:12:03.988Z,15.65
2023-01-25T14:14:34.634Z,10.50
2023-01-25T14:17:21.329Z,13.30
2023-01-25T14:19:51.874Z,15.40
2023-01-25T14:22:26.320Z,10.55
2023-01-25T14:25:10.235Z,9.02
2023-01-25T14:27:47.672Z,15.98
2023-01-25T14:30:26.029Z,15.88
2023-01-25T14:32:57.912Z,18.25
2023-01-25T14:35:42.237Z,17.33
2023-01-25T14:38:27.835Z,12.90
2023-01-25T14:41:07.200Z,21.65
2023-01-25T14:43:39.205Z,11.85
2023-01-25T14:46:21.911Z,13.35
2023-01-25T14:48:52.260Z,11.93
2023-01-25T14:51:29.416Z,11.88
2023-01-25T14:54:03.137Z,13.98
2023-01-25T14:56:42.550Z,19.17
2023-01-25T14:59:27.201Z,12.80
2023-01-25T15:02:01.595Z,11.43
2023-01-25T15:04:44.379Z,19.38
2023-01-25T15:07:44.791Z,14.95
2023-01-25T15:10:20.168Z,15.18
2023-01-25T15:13:13.995Z,18.65
2023-01-25T15:15:55.625Z,18.40
2023-01-25T15:18:44.141Z,16.13
2023-01-25T15:21:14.533Z,15.48
2023-01-25T15:23:44.798Z,15.02
2023-01-25T15:26:21.367Z,14.38
2023-01-25T15:28:53.446Z,15.85
2023-01-25T15:31:26.445Z,17.70
2023-01-25T15:33:55.780Z,13.93
2023-01-25T15:36:24.794Z,16.38
2023-01-25T15:38:53.710Z,15.30
2023-01-25T15:41:22.567Z,18.35
2023-01-25T15:43:53.376Z,13.73
2023-01-25T15:46:25.251Z,19.60
2023-01-25T15:48:54.783Z,15.30
2023-01-25T15:51:23.709Z,17.33
2023-01-25T15:53:52.368Z,22.02
2023-01-25T15:56:23.120Z,27.10
2023-01-25T15:58:55.500Z,18.10
2023-01-25T16:01:27.826Z,23.63
2023-01-25T16:03:57.706Z,21.27
2023-01-25T16:06:37.540Z,19.50
2023-01-25T16:09:15.646Z,18.48
2023-01-25T16:11:51.533Z,17.55
2023-01-25T16:14:24.203Z,24.83
2023-01-25T16:16:55.982Z,26.42
2023-01-25T16:19:26.401Z,25.33
2023-01-25T16:21:55.210Z,26.50
2023-01-25T16:24:24.020Z,19.00
2023-01-25T16:26:55.878Z,23.63
2023-01-25T16:29:27.100Z,20.75
2023-01-25T16:31:56.446Z,27.35
2023-01-25T16:34:25.180Z,25.35
2023-01-25T16:36:54.487Z,24.90
2023-01-25T16:39:35.197Z,19.65
2023-01-25T16:42:04.153Z,21.98
2023-01-25T16:44:34.383Z,38.55
2023-01-25T16:47:04.206Z,28.10
2023-01-25T16:49:34.011Z,24.88
2023-01-25T16:52:04.552Z,26.40
2023-01-25T16:54:33.777Z,28.00
2023-01-25T16:57:20.607Z,28.65
2023-01-25T16:59:52.496Z,29.13
2023-01-25T17:02:21.365Z,27.52
2023-01-25T17:04:50.099Z,24.90
2023-01-25T17:07:19.183Z,29.67
2023-01-25T17:09:47.896Z,21.38
2023-01-25T17:12:16.458Z,25.45
2023-01-25T17:14:45.297Z,28.58
2023-01-25T17:17:15.774Z,28.67
2023-01-25T17:19:44.673Z,27.15
2023-01-25T17:22:14.297Z,26.55
2023-01-25T17:24:42.959Z,27.58
2023-01-25T17:27:11.885Z,27.55
2023-01-25T17:29:40.701Z,23.80
2023-01-25T17:32:09.905Z,29.52
2023-01-25T17:34:40.069Z,25.30
2023-01-25T17:37:09.365Z,30.27
2023-01-25T17:39:38.173Z,36.38
2023-01-25T17:42:09.517Z,31.15
2023-01-25T17:44:38.500Z,30.23
2023-01-25T17:47:07.469Z,31.83
2023-01-25T17:49:37.326Z,27.08
2023-01-25T17:52:08.895Z,29.33
2023-01-25T17:54:40.533Z,35.03
2023-01-25T17:57:11.586Z,28.27
2023-01-25T17:59:41.122Z,36.60
2023-01-25T18:02:12.007Z,41.60
2023-01-25T18:04:41.437Z,40.92
2023-01-25T18:07:12.277Z,34.75
2023-01-25T18:09:40.964Z,34.33
2023-01-25T18:12:09.691Z,32.22
2023-01-25T18:14:38.369Z,29.35
2023-01-25T18:17:07.355Z,33.55
2023-01-25T18:19:55.331Z,31.33
2023-01-25T18:22:34.056Z,39.13
2023-01-25T18:25:03.807Z,46.63
2023-01-25T18:27:32.630Z,36.13
2023-01-25T18:30:04.297Z,34.83
2023-01-25T18:32:34.516Z,45.10
2023-01-25T18:35:04.601Z,33.92
2023-01-25T18:37:43.994Z,33.60
2023-01-25T18:40:15.162Z,26.88
2023-01-25T18:42:46.231Z,34.00
2023-01-25T18:45:15.050Z,40.05
2023-01-25T18:47:43.881Z,52.65
2023-01-25T18:50:14.465Z,50.95
2023-01-25T18:52:44.919Z,46.03
2023-01-25T18:55:14.675Z,42.78
2023-01-25T18:57:44.405Z,37.13
2023-01-25T19:00:15.431Z,36.10
2023-01-25T19:02:44.236Z,34.33
2023-01-25T19:05:14.222Z,32.90
2023-01-25T19:07:44.592Z,28.52
2023-01-25T19:10:13.532Z,37.03
2023-01-25T19:12:42.223Z,39.55
2023-01-25T19:15:11.875Z,46.10
2023-01-25T19:17:40.728Z,37.08
2023-01-25T19:20:10.834Z,37.28
2023-01-25T19:22:40.873Z,31.77
2023-01-25T19:25:11.937Z,36.25
2023-01-25T19:27:40.793Z,39.03
2023-01-25T19:30:10.895Z,30.85
2023-01-25T19:32:39.762Z,30.15
2023-01-25T19:35:09.204Z,32.92
2023-01-25T19:37:38.003Z,39.05
2023-01-25T19:40:07.729Z,36.70
2023-01-25T19:42:37.756Z,38.65
2023-01-25T19:45:07.633Z,40.78
2023-01-25T19:47:37.279Z,51.88
2023-01-25T19:50:07.016Z,42.47
2023-01-25T19:52:36.646Z,39.15
2023-01-25T19:55:08.011Z,41.60
2023-01-25T19:57:38.695Z,35.58
2023-01-25T20:00:08.636Z,44.15
2023-01-25T20:02:37.357Z,35.08
2023-01-25T20:05:06.634Z,36.72
2023-01-25T20:07:35.213Z,35.28
2023-01-25T20:10:03.869Z,39.22
2023-01-25T20:12:32.582Z,32.55
2023-01-25T20:15:05.091Z,30.02
2023-01-25T20:17:34.779Z,44.67
2023-01-25T20:20:03.417Z,41.17
2023-01-25T20:22:32.429Z,44.95
2023-01-25T20:25:01.547Z,32.97
2023-01-25T20:27:30.211Z,33.72
2023-01-25T20:29:58.992Z,31.88
2023-01-25T20:32:33.153Z,36.88
2023-01-25T20:35:03.933Z,39.80
2023-01-25T20:37:34.715Z,30.88
2023-01-25T20:40:03.944Z,36.53
2023-01-25T20:42:32.702Z,37.40
2023-01-25T20:45:01.439Z,31.05
2023-01-25T20:47:31.717Z,40.20
2023-01-25T20:50:00.355Z,33.35
2023-01-25T20:52:29.495Z,40.33
2023-01-25T20:54:59.275Z,43.22
2023-01-25T20:57:27.963Z,42.90
2023-01-25T20:59:57.335Z,41.35
2023-01-25T21:02:26.024Z,28.48
2023-01-25T21:04:56.258Z,27.02
2023-01-25T21:07:24.984Z,32.33
2023-01-25T21:09:54.451Z,39.53
2023-01-25T21:12:23.409Z,33.65
2023-01-25T21:14:52.965Z,36.58
2023-01-25T21:17:22.928Z,42.70
2023-01-25T21:19:51.631Z,33.33
2023-01-25T21:22:22.443Z,33.53
2023-01-25T21:24:51.924Z,30.17
2023-01-25T21:27:23.204Z,35.65
2023-01-25T21:29:52.899Z,31.92
2023-01-25T21:32:23.573Z,30.80
2023-01-25T21:34:52.269Z,46.90
2023-01-25T21:37:22.758Z,35.65
2023-01-25T21:39:52.944Z,42.13
2023-01-25T21:42:21.558Z,31.50
2023-01-25T21:45:09.417Z,31.27
2023-01-25T21:47:43.102Z,41.28
2023-01-25T21:50:30.042Z,37.80
2023-01-25T21:53:00.069Z,27.73
2023-01-25T21:55:28.837Z,35.60
2023-01-25T21:57:58.688Z,46.15
2023-01-25T22:00:27.664Z,40.33
2023-01-25T22:02:56.300Z,30.60
2023-01-25T22:05:24.796Z,41.03
2023-01-25T22:07:53.529Z,31.27
2023-01-25T22:10:23.568Z,42.17
2023-01-25T22:12:52.455Z,27.40
2023-01-25T22:15:21.485Z,35.05
2023-01-25T22:17:50.092Z,43.83
2023-01-25T22:20:19.138Z,35.85
2023-01-25T22:22:47.928Z,51.65
2023-01-25T22:25:17.581Z,40.33
2023-01-25T22:27:55.382Z,38.80
2023-01-25T22:30:24.085Z,33.90
2023-01-25T22:32:53.749Z,29.02
2023-01-25T22:35:22.346Z,43.30
2023-01-25T22:37:58.002Z,40.55
2023-01-25T22:40:27.565Z,37.58
2023-01-25T22:42:57.719Z,41.17
2023-01-25T22:45:26.247Z,46.50
2023-01-25T22:47:54.778Z,42.15
2023-01-25T22:50:24.699Z,33.85
2023-01-25T22:52:53.537Z,34.05
2023-01-25T22:55:22.290Z,30.67
2023-01-25T22:57:50.920Z,35.63
2023-01-25T23:00:22.250Z,31.13
2023-01-25T23:02:51.162Z,30.80
2023-01-25T23:05:22.016Z,31.30
2023-01-25T23:07:51.904Z,40.88
2023-01-25T23:10:21.070Z,36.45
2023-01-25T23:12:49.857Z,30.75
2023-01-25T23:15:20.808Z,31.58
2023-01-25T23:18:08.076Z,26.35
2023-01-25T23:20:37.335Z,32.08
2023-01-25T23:23:06.323Z,31.17
2023-01-25T23:25:35.114Z,33.97
2023-01-25T23:28:03.770Z,31.42
2023-01-25T23:30:35.598Z,35.17
2023-01-25T23:33:10.337Z,34.75
2023-01-25T23:35:39.318Z,35.30
2023-01-25T23:38:15.639Z,33.20
2023-01-25T23:40:44.361Z,35.88
2023-01-25T23:43:13.200Z,32.40
2023-01-25T23:45:45.286Z,27.08
2023-01-25T23:48:14.949Z,30.75
2023-01-25T23:50:43.778Z,31.27
2023-01-25T23:53:12.529Z,32.92
2023-01-25T23:55:41.120Z,32.28
2023-01-25T23:58:09.835Z,35.72
